Cherry Creek, Nevada
Current Conditions -  °F | °C
As of 8:53 PM on Friday 28 Nov 2014 (Local Time) from KELY Reporting Station
Clear Clear  
Wind Chill: 34°   Ceiling: Unl
Heat Index: 43°   Visibility: 10mi
Dew Point: 12°   Wind: 22mph
Humidity: 28%   Direction: 180°S
Pressure: 29.92"   Gusts: NA
Location:  39.5572°N, 115.033°W
Report Text: KELY 290453Z AUTO 18019KT 10SM CLR 06/M11 A2992 RMK AO2 SLP097 T00611111
Loading
Personal Weather Stations






























Interactive Weather Map New forecast layout! Learn more

10-Day Weather Forecast

Advertisements
Track Severe Weather on mobile